sensor_id;sensor_type;location;lat;lon;timestamp;pressure;altitude;pressure_sealevel;temperature;humidity
55217;BME280;41086;46.736;15.666;2023-02-12T00:01:15;99986.47;;;-1.21;100.00
55217;BME280;41086;46.736;15.666;2023-02-12T00:03:42;99996.06;;;-1.14;100.00
55217;BME280;41086;46.736;15.666;2023-02-12T00:06:10;99989.09;;;-1.16;100.00
55217;BME280;41086;46.736;15.666;2023-02-12T00:08:40;99988.19;;;-1.23;100.00
55217;BME280;41086;46.736;15.666;2023-02-12T00:11:09;100001.22;;;-1.21;100.00
55217;BME280;41086;46.736;15.666;2023-02-12T00:13:37;100002.97;;;-1.22;100.00
55217;BME280;41086;46.736;15.666;2023-02-12T00:16:05;99993.41;;;-1.29;100.00
55217;BME280;41086;46.736;15.666;2023-02-12T00:18:32;99995.97;;;-1.35;100.00
55217;BME280;41086;46.736;15.666;2023-02-12T00:21:00;99989.97;;;-1.25;100.00
55217;BME280;41086;46.736;15.666;2023-02-12T00:23:27;100002.97;;;-1.20;100.00
55217;BME280;41086;46.736;15.666;2023-02-12T00:25:54;99993.44;;;-1.17;100.00
55217;BME280;41086;46.736;15.666;2023-02-12T00:28:21;99988.22;;;-1.18;100.00
55217;BME280;41086;46.736;15.666;2023-02-12T00:30:48;99972.59;;;-1.20;100.00
55217;BME280;41086;46.736;15.666;2023-02-12T00:33:15;100000.34;;;-1.20;100.00
55217;BME280;41086;46.736;15.666;2023-02-12T00:35:43;100006.44;;;-1.18;100.00
55217;BME280;41086;46.736;15.666;2023-02-12T00:38:10;100001.22;;;-1.23;100.00
55217;BME280;41086;46.736;15.666;2023-02-12T00:40:37;99996.91;;;-1.19;100.00
55217;BME280;41086;46.736;15.666;2023-02-12T00:43:04;99984.75;;;-1.19;100.00
55217;BME280;41086;46.736;15.666;2023-02-12T00:45:31;99995.19;;;-1.16;100.00
55217;BME280;41086;46.736;15.666;2023-02-12T00:47:58;99984.75;;;-1.22;100.00
55217;BME280;41086;46.736;15.666;2023-02-12T00:50:25;99991.72;;;-1.10;100.00
55217;BME280;41086;46.736;15.666;2023-02-12T00:52:51;100004.75;;;-1.04;100.00
55217;BME280;41086;46.736;15.666;2023-02-12T00:55:18;100006.47;;;-0.98;100.00
55217;BME280;41086;46.736;15.666;2023-02-12T00:57:45;100020.38;;;-0.99;100.00
55217;BME280;41086;46.736;15.666;2023-02-12T01:00:13;100017.75;;;-1.02;100.00
55217;BME280;41086;46.736;15.666;2023-02-12T01:02:40;100022.97;;;-0.96;100.00
55217;BME280;41086;46.736;15.666;2023-02-12T01:05:07;100022.09;;;-0.95;100.00
55217;BME280;41086;46.736;15.666;2023-02-12T01:07:34;100020.34;;;-1.01;100.00
55217;BME280;41086;46.736;15.666;2023-02-12T01:10:01;100024.72;;;-1.03;100.00
55217;BME280;41086;46.736;15.666;2023-02-12T01:12:28;100006.47;;;-1.17;100.00
55217;BME280;41086;46.736;15.666;2023-02-12T01:14:55;100026.44;;;-1.08;100.00
55217;BME280;41086;46.736;15.666;2023-02-12T01:17:22;100030.72;;;-1.18;100.00
55217;BME280;41086;46.736;15.666;2023-02-12T01:19:48;100037.69;;;-1.09;100.00
55217;BME280;41086;46.736;15.666;2023-02-12T01:22:15;100023.81;;;-1.05;100.00
55217;BME280;41086;46.736;15.666;2023-02-12T01:24:42;100017.75;;;-1.02;100.00
55217;BME280;41086;46.736;15.666;2023-02-12T01:27:09;100017.78;;;-0.95;100.00
55217;BME280;41086;46.736;15.666;2023-02-12T01:29:35;100025.63;;;-0.82;100.00
55217;BME280;41086;46.736;15.666;2023-02-12T01:32:03;100024.78;;;-0.75;100.00
55217;BME280;41086;46.736;15.666;2023-02-12T01:34:30;100035.16;;;-0.74;100.00
55217;BME280;41086;46.736;15.666;2023-02-12T01:36:57;100019.53;;;-0.84;100.00
55217;BME280;41086;46.736;15.666;2023-02-12T01:39:24;100041.25;;;-0.72;100.00
55217;BME280;41086;46.736;15.666;2023-02-12T01:41:51;100028.19;;;-0.90;100.00
55217;BME280;41086;46.736;15.666;2023-02-12T01:44:18;100032.53;;;-0.91;100.00
55217;BME280;41086;46.736;15.666;2023-02-12T01:47:00;100029.03;;;-1.03;100.00
55217;BME280;41086;46.736;15.666;2023-02-12T01:49:31;100047.31;;;-0.90;100.00
55217;BME280;41086;46.736;15.666;2023-02-12T01:54:33;100051.66;;;-0.79;100.00
55217;BME280;41086;46.736;15.666;2023-02-12T01:57:03;100036.91;;;-0.80;100.00
55217;BME280;41086;46.736;15.666;2023-02-12T01:59:31;100022.16;;;-0.80;100.00
55217;BME280;41086;46.736;15.666;2023-02-12T02:01:58;100023.03;;;-0.78;100.00
55217;BME280;41086;46.736;15.666;2023-02-12T02:04:31;100010.00;;;-0.85;100.00
55217;BME280;41086;46.736;15.666;2023-02-12T02:07:01;100012.56;;;-0.93;100.00
55217;BME280;41086;46.736;15.666;2023-02-12T02:09:30;100016.06;;;-0.88;100.00
55217;BME280;41086;46.736;15.666;2023-02-12T02:11:59;100013.47;;;-0.83;100.00
55217;BME280;41086;46.736;15.666;2023-02-12T02:14:46;100023.00;;;-0.85;100.00
55217;BME280;41086;46.736;15.666;2023-02-12T02:17:19;100018.66;;;-0.88;100.00
55217;BME280;41086;46.736;15.666;2023-02-12T02:22:42;100014.28;;;-1.01;100.00
55217;BME280;41086;46.736;15.666;2023-02-12T02:30:37;100021.22;;;-1.02;100.00
55217;BME280;41086;46.736;15.666;2023-02-12T02:35:48;100034.25;;;-1.02;100.00
55217;BME280;41086;46.736;15.666;2023-02-12T02:38:39;100009.06;;;-1.14;100.00
55217;BME280;41086;46.736;15.666;2023-02-12T02:41:20;100009.03;;;-1.18;100.00
55217;BME280;41086;46.736;15.666;2023-02-12T02:43:53;100002.13;;;-1.16;100.00
55217;BME280;41086;46.736;15.666;2023-02-12T02:46:29;100014.25;;;-1.15;100.00
55217;BME280;41086;46.736;15.666;2023-02-12T02:49:04;100020.28;;;-1.27;100.00
55217;BME280;41086;46.736;15.666;2023-02-12T02:51:39;100039.28;;;-1.39;100.00
55217;BME280;41086;46.736;15.666;2023-02-12T02:54:25;100028.00;;;-1.45;100.00
55217;BME280;41086;46.736;15.666;2023-02-12T02:56:57;100007.19;;;-1.50;100.00
55217;BME280;41086;46.736;15.666;2023-02-12T02:59:30;100020.25;;;-1.33;100.00
55217;BME280;41086;46.736;15.666;2023-02-12T03:02:03;100027.25;;;-1.21;100.00
55217;BME280;41086;46.736;15.666;2023-02-12T03:04:36;100035.94;;;-1.16;100.00
55217;BME280;41086;46.736;15.666;2023-02-12T03:07:33;100006.41;;;-1.32;100.00
55217;BME280;41086;46.736;15.666;2023-02-12T03:10:11;100028.97;;;-1.23;100.00
55217;BME280;41086;46.736;15.666;2023-02-12T03:17:48;100023.78;;;-1.19;100.00
55217;BME280;41086;46.736;15.666;2023-02-12T03:20:23;100025.50;;;-1.21;100.00
55217;BME280;41086;46.736;15.666;2023-02-12T03:22:57;100024.66;;;-1.21;100.00
55217;BME280;41086;46.736;15.666;2023-02-12T03:25:29;100040.31;;;-1.07;100.00
55217;BME280;41086;46.736;15.666;2023-02-12T03:28:09;100046.38;;;-1.01;100.00
55217;BME280;41086;46.736;15.666;2023-02-12T03:30:47;100036.84;;;-0.96;100.00
55217;BME280;41086;46.736;15.666;2023-02-12T03:36:52;100061.16;;;-0.94;100.00
55217;BME280;41086;46.736;15.666;2023-02-12T03:39:44;100057.72;;;-0.85;100.00
55217;BME280;41086;46.736;15.666;2023-02-12T03:42:45;100043.84;;;-0.81;100.00
55217;BME280;41086;46.736;15.666;2023-02-12T03:47:47;100070.78;;;-0.67;100.00
55217;BME280;41086;46.736;15.666;2023-02-12T03:50:19;100073.41;;;-0.62;100.00
55217;BME280;41086;46.736;15.666;2023-02-12T03:52:48;100057.72;;;-0.82;100.00
55217;BME280;41086;46.736;15.666;2023-02-12T03:55:16;100075.97;;;-0.71;100.00
55217;BME280;41086;46.736;15.666;2023-02-12T03:57:49;100078.56;;;-0.74;100.00
55217;BME280;41086;46.736;15.666;2023-02-12T04:00:21;100072.50;;;-0.72;100.00
55217;BME280;41086;46.736;15.666;2023-02-12T04:02:49;100082.03;;;-0.75;100.00
55217;BME280;41086;46.736;15.666;2023-02-12T04:05:22;100080.31;;;-0.65;100.00
55217;BME280;41086;46.736;15.666;2023-02-12T04:07:50;100075.97;;;-0.70;100.00
55217;BME280;41086;46.736;15.666;2023-02-12T04:10:23;100071.63;;;-0.71;100.00
55217;BME280;41086;46.736;15.666;2023-02-12T04:13:02;100078.59;;;-0.60;100.00
55217;BME280;41086;46.736;15.666;2023-02-12T04:15:45;100077.72;;;-0.64;100.00
55217;BME280;41086;46.736;15.666;2023-02-12T04:27:09;100102.94;;;-0.54;100.00
55217;BME280;41086;46.736;15.666;2023-02-12T04:29:51;100103.78;;;-0.61;100.00
55217;BME280;41086;46.736;15.666;2023-02-12T04:33:09;100115.88;;;-0.71;100.00
55217;BME280;41086;46.736;15.666;2023-02-12T04:35:30;100092.44;;;-0.80;100.00
55217;BME280;41086;46.736;15.666;2023-02-12T04:40:25;100109.78;;;-0.82;100.00
55217;BME280;41086;46.736;15.666;2023-02-12T04:42:52;100110.69;;;-0.75;100.00
55217;BME280;41086;46.736;15.666;2023-02-12T04:45:28;100128.91;;;-0.69;100.00
55217;BME280;41086;46.736;15.666;2023-02-12T04:47:55;100116.75;;;-0.69;100.00
55217;BME280;41086;46.736;15.666;2023-02-12T04:50:23;100136.75;;;-0.66;100.00
55217;BME280;41086;46.736;15.666;2023-02-12T04:52:49;100131.50;;;-0.77;100.00
55217;BME280;41086;46.736;15.666;2023-02-12T04:55:16;100147.16;;;-0.66;100.00
55217;BME280;41086;46.736;15.666;2023-02-12T04:57:43;100138.47;;;-0.70;100.00
55217;BME280;41086;46.736;15.666;2023-02-12T05:00:12;100153.25;;;-0.62;100.00
55217;BME280;41086;46.736;15.666;2023-02-12T05:02:39;100154.13;;;-0.59;100.00
55217;BME280;41086;46.736;15.666;2023-02-12T05:05:06;100153.25;;;-0.58;100.00
55217;BME280;41086;46.736;15.666;2023-02-12T05:07:33;100160.22;;;-0.55;100.00
55217;BME280;41086;46.736;15.666;2023-02-12T05:10:00;100132.34;;;-0.79;100.00
55217;BME280;41086;46.736;15.666;2023-02-12T05:12:26;100159.28;;;-0.68;100.00
55217;BME280;41086;46.736;15.666;2023-02-12T05:14:53;100159.34;;;-0.65;100.00
55217;BME280;41086;46.736;15.666;2023-02-12T05:17:21;100166.25;;;-0.65;100.00
55217;BME280;41086;46.736;15.666;2023-02-12T05:19:48;100166.25;;;-0.69;100.00
55217;BME280;41086;46.736;15.666;2023-02-12T05:22:16;100161.03;;;-0.69;100.00
55217;BME280;41086;46.736;15.666;2023-02-12T05:24:43;100162.78;;;-0.64;100.00
55217;BME280;41086;46.736;15.666;2023-02-12T05:27:09;100166.25;;;-0.67;100.00
55217;BME280;41086;46.736;15.666;2023-02-12T05:29:36;100158.47;;;-0.64;100.00
55217;BME280;41086;46.736;15.666;2023-02-12T05:32:03;100160.19;;;-0.64;100.00
55217;BME280;41086;46.736;15.666;2023-02-12T05:34:30;100163.66;;;-0.64;100.00
55217;BME280;41086;46.736;15.666;2023-02-12T05:36:57;100168.00;;;-0.60;100.00
55217;BME280;41086;46.736;15.666;2023-02-12T05:39:24;100153.25;;;-0.64;100.00
55217;BME280;41086;46.736;15.666;2023-02-12T05:41:50;100153.22;;;-0.65;100.00
55217;BME280;41086;46.736;15.666;2023-02-12T05:44:17;100178.38;;;-0.74;100.00
55217;BME280;41086;46.736;15.666;2023-02-12T05:46:44;100170.56;;;-0.74;100.00
55217;BME280;41086;46.736;15.666;2023-02-12T05:49:11;100176.59;;;-0.79;100.00
55217;BME280;41086;46.736;15.666;2023-02-12T05:51:38;100184.47;;;-0.73;100.00
55217;BME280;41086;46.736;15.666;2023-02-12T05:54:05;100194.00;;;-0.71;100.00
55217;BME280;41086;46.736;15.666;2023-02-12T05:56:35;100190.53;;;-0.76;100.00
55217;BME280;41086;46.736;15.666;2023-02-12T05:59:07;100200.00;;;-0.92;100.00
55217;BME280;41086;46.736;15.666;2023-02-12T06:01:37;100203.50;;;-0.82;100.00
55217;BME280;41086;46.736;15.666;2023-02-12T06:04:06;100176.53;;;-0.96;100.00
55217;BME280;41086;46.736;15.666;2023-02-12T06:06:34;100191.31;;;-0.94;100.00
55217;BME280;41086;46.736;15.666;2023-02-12T06:09:01;100165.19;;;-1.10;100.00
55217;BME280;41086;46.736;15.666;2023-02-12T06:11:29;100201.72;;;-0.92;100.00
55217;BME280;41086;46.736;15.666;2023-02-12T06:13:55;100203.41;;;-1.00;100.00
55217;BME280;41086;46.736;15.666;2023-02-12T06:16:25;100193.81;;;-1.06;100.00
55217;BME280;41086;46.736;15.666;2023-02-12T06:18:54;100200.81;;;-0.99;100.00
55217;BME280;41086;46.736;15.666;2023-02-12T06:21:23;100208.66;;;-0.91;100.00
55217;BME280;41086;46.736;15.666;2023-02-12T06:23:51;100219.13;;;-0.86;100.00
55217;BME280;41086;46.736;15.666;2023-02-12T06:26:19;100206.06;;;-0.94;100.00
55217;BME280;41086;46.736;15.666;2023-02-12T06:28:47;100205.97;;;-1.06;100.00
55217;BME280;41086;46.736;15.666;2023-02-12T06:31:27;100220.75;;;-0.99;100.00
55217;BME280;41086;46.736;15.666;2023-02-12T06:33:57;100215.59;;;-0.98;100.00
55217;BME280;41086;46.736;15.666;2023-02-12T06:36:24;100219.88;;;-0.98;100.00
55217;BME280;41086;46.736;15.666;2023-02-12T06:38:51;100228.63;;;-0.90;100.00
55217;BME280;41086;46.736;15.666;2023-02-12T06:41:22;100233.84;;;-0.87;100.00
55217;BME280;41086;46.736;15.666;2023-02-12T06:43:49;100237.34;;;-0.83;100.00
55217;BME280;41086;46.736;15.666;2023-02-12T06:46:16;100253.03;;;-0.73;100.00
55217;BME280;41086;46.736;15.666;2023-02-12T06:48:43;100256.47;;;-0.77;100.00
55217;BME280;41086;46.736;15.666;2023-02-12T06:51:17;100241.63;;;-0.93;100.00
55217;BME280;41086;46.736;15.666;2023-02-12T06:53:44;100262.50;;;-0.82;100.00
55217;BME280;41086;46.736;15.666;2023-02-12T06:56:11;100253.88;;;-0.75;100.00
55217;BME280;41086;46.736;15.666;2023-02-12T06:58:40;100256.50;;;-0.69;100.00
55217;BME280;41086;46.736;15.666;2023-02-12T07:01:19;100258.25;;;-0.67;100.00
55217;BME280;41086;46.736;15.666;2023-02-12T07:03:52;100268.72;;;-0.59;100.00
55217;BME280;41086;46.736;15.666;2023-02-12T07:06:20;100285.25;;;-0.54;100.00
55217;BME280;41086;46.736;15.666;2023-02-12T07:08:48;100289.63;;;-0.48;100.00
55217;BME280;41086;46.736;15.666;2023-02-12T07:11:15;100286.16;;;-0.41;100.00
55217;BME280;41086;46.736;15.666;2023-02-12T07:13:42;100289.69;;;-0.34;100.00
55217;BME280;41086;46.736;15.666;2023-02-12T07:16:11;100277.47;;;-0.41;100.00
55217;BME280;41086;46.736;15.666;2023-02-12T07:18:38;100270.56;;;-0.30;100.00
55217;BME280;41086;46.736;15.666;2023-02-12T07:21:06;100278.41;;;-0.26;100.00
55217;BME280;41086;46.736;15.666;2023-02-12T07:23:35;100282.78;;;-0.23;100.00
55217;BME280;41086;46.736;15.666;2023-02-12T07:26:03;100276.69;;;-0.24;100.00
55217;BME280;41086;46.736;15.666;2023-02-12T07:28:30;100271.44;;;-0.34;100.00
55217;BME280;41086;46.736;15.666;2023-02-12T07:31:17;100278.38;;;-0.30;100.00
55217;BME280;41086;46.736;15.666;2023-02-12T07:33:45;100295.81;;;-0.18;100.00
55217;BME280;41086;46.736;15.666;2023-02-12T07:36:16;100303.69;;;-0.11;100.00
55217;BME280;41086;46.736;15.666;2023-02-12T07:38:45;100292.41;;;-0.05;100.00
55217;BME280;41086;46.736;15.666;2023-02-12T07:41:15;100299.34;;;-0.01;100.00
55217;BME280;41086;46.736;15.666;2023-02-12T07:43:45;100303.72;;;0.05;100.00
55217;BME280;41086;46.736;15.666;2023-02-12T07:46:19;100304.59;;;0.16;100.00
55217;BME280;41086;46.736;15.666;2023-02-12T07:48:53;100294.19;;;0.20;100.00
55217;BME280;41086;46.736;15.666;2023-02-12T07:51:21;100307.25;;;0.22;100.00
55217;BME280;41086;46.736;15.666;2023-02-12T07:53:50;100302.03;;;0.25;100.00
55217;BME280;41086;46.736;15.666;2023-02-12T07:56:21;100302.94;;;0.36;100.00
55217;BME280;41086;46.736;15.666;2023-02-12T07:58:49;100307.28;;;0.48;100.00
55217;BME280;41086;46.736;15.666;2023-02-12T08:01:20;100319.50;;;0.60;100.00
55217;BME280;41086;46.736;15.666;2023-02-12T08:03:49;100294.28;;;0.60;100.00
55217;BME280;41086;46.736;15.666;2023-02-12T08:06:23;100324.72;;;0.72;100.00
55217;BME280;41086;46.736;15.666;2023-02-12T08:08:51;100331.69;;;0.85;100.00
55217;BME280;41086;46.736;15.666;2023-02-12T08:11:20;100331.69;;;0.99;100.00
55217;BME280;41086;46.736;15.666;2023-02-12T08:13:47;100331.69;;;1.15;100.00
55217;BME280;41086;46.736;15.666;2023-02-12T08:16:16;100340.34;;;1.37;100.00
55217;BME280;41086;46.736;15.666;2023-02-12T08:18:45;100335.06;;;1.63;100.00
55217;BME280;41086;46.736;15.666;2023-02-12T08:21:17;100333.25;;;1.86;100.00
55217;BME280;41086;46.736;15.666;2023-02-12T08:23:48;100334.88;;;2.15;100.00
55217;BME280;41086;46.736;15.666;2023-02-12T08:26:23;100332.13;;;2.38;100.00
55217;BME280;41086;46.736;15.666;2023-02-12T08:28:55;100338.03;;;2.71;100.00
55217;BME280;41086;46.736;15.666;2023-02-12T08:31:25;100330.13;;;2.78;100.00
55217;BME280;41086;46.736;15.666;2023-02-12T08:33:56;100340.41;;;3.03;100.00
55217;BME280;41086;46.736;15.666;2023-02-12T08:36:35;100341.41;;;2.86;100.00
55217;BME280;41086;46.736;15.666;2023-02-12T08:39:07;100336.28;;;2.74;100.00
55217;BME280;41086;46.736;15.666;2023-02-12T08:41:38;100338.16;;;2.54;100.00
55217;BME280;41086;46.736;15.666;2023-02-12T08:44:05;100345.09;;;2.59;100.00
55217;BME280;41086;46.736;15.666;2023-02-12T08:46:35;100360.78;;;2.62;100.00
55217;BME280;41086;46.736;15.666;2023-02-12T08:49:09;100355.44;;;2.76;100.00
55217;BME280;41086;46.736;15.666;2023-02-12T08:51:41;100332.94;;;2.51;100.00
55217;BME280;41086;46.736;15.666;2023-02-12T08:54:13;100362.53;;;2.60;100.00
55217;BME280;41086;46.736;15.666;2023-02-12T08:56:40;100362.63;;;2.43;100.00
55217;BME280;41086;46.736;15.666;2023-02-12T08:59:08;100367.53;;;2.96;100.00
55217;BME280;41086;46.736;15.666;2023-02-12T09:01:37;100361.25;;;3.17;100.00
55217;BME280;41086;46.736;15.666;2023-02-12T09:04:05;100351.94;;;2.80;100.00
55217;BME280;41086;46.736;15.666;2023-02-12T09:06:33;100350.22;;;2.73;100.00
55217;BME280;41086;46.736;15.666;2023-02-12T09:09:01;100366.81;;;2.75;100.00
55217;BME280;41086;46.736;15.666;2023-02-12T09:11:28;100374.63;;;2.81;100.00
55217;BME280;41086;46.736;15.666;2023-02-12T09:14:00;100378.88;;;2.98;100.00
55217;BME280;41086;46.736;15.666;2023-02-12T09:16:29;100383.97;;;3.18;100.00
55217;BME280;41086;46.736;15.666;2023-02-12T09:18:57;100394.94;;;3.61;100.00
55217;BME280;41086;46.736;15.666;2023-02-12T09:21:24;100395.72;;;3.69;99.03
55217;BME280;41086;46.736;15.666;2023-02-12T09:23:51;100393.75;;;3.91;93.55
55217;BME280;41086;46.736;15.666;2023-02-12T09:26:21;100398.28;;;4.50;93.93
55217;BME280;41086;46.736;15.666;2023-02-12T09:28:49;100384.09;;;4.63;87.56
55217;BME280;41086;46.736;15.666;2023-02-12T09:31:18;100391.88;;;4.69;85.15
55217;BME280;41086;46.736;15.666;2023-02-12T09:33:46;100380.41;;;4.76;88.24
55217;BME280;41086;46.736;15.666;2023-02-12T09:36:17;100391.75;;;4.78;83.34
55217;BME280;41086;46.736;15.666;2023-02-12T09:38:44;100388.06;;;4.92;83.41
55217;BME280;41086;46.736;15.666;2023-02-12T09:44:03;100390.50;;;5.04;85.33
55217;BME280;41086;46.736;15.666;2023-02-12T09:51:52;100405.28;;;5.09;84.33
55217;BME280;41086;46.736;15.666;2023-02-12T09:54:22;100408.59;;;5.22;81.03
55217;BME280;41086;46.736;15.666;2023-02-12T09:56:54;100405.44;;;5.53;81.73
55217;BME280;41086;46.736;15.666;2023-02-12T09:59:27;100426.00;;;5.81;75.82
55217;BME280;41086;46.736;15.666;2023-02-12T10:01:57;100402.13;;;5.94;76.26
55217;BME280;41086;46.736;15.666;2023-02-12T10:04:26;100402.84;;;6.01;74.49
55217;BME280;41086;46.736;15.666;2023-02-12T10:07:16;100416.22;;;6.35;74.63
55217;BME280;41086;46.736;15.666;2023-02-12T10:12:54;100416.00;;;6.46;75.78
55217;BME280;41086;46.736;15.666;2023-02-12T10:26:29;100422.16;;;7.60;69.25
55217;BME280;41086;46.736;15.666;2023-02-12T10:29:26;100413.69;;;7.80;71.55
55217;BME280;41086;46.736;15.666;2023-02-12T10:31:58;100414.66;;;7.76;72.30
55217;BME280;41086;46.736;15.666;2023-02-12T10:34:31;100401.16;;;7.55;69.28
55217;BME280;41086;46.736;15.666;2023-02-12T10:37:23;100404.09;;;7.43;75.09
55217;BME280;41086;46.736;15.666;2023-02-12T10:39:59;100407.44;;;7.50;68.56
55217;BME280;41086;46.736;15.666;2023-02-12T10:45:02;100411.53;;;8.27;71.48
55217;BME280;41086;46.736;15.666;2023-02-12T10:47:29;100405.56;;;9.36;64.57
55217;BME280;41086;46.736;15.666;2023-02-12T10:50:07;100404.94;;;9.81;61.76
55217;BME280;41086;46.736;15.666;2023-02-12T10:53:05;100402.34;;;10.30;58.48
55217;BME280;41086;46.736;15.666;2023-02-12T10:55:37;100394.53;;;10.25;55.81
55217;BME280;41086;46.736;15.666;2023-02-12T10:58:18;100385.06;;;10.43;56.40
55217;BME280;41086;46.736;15.666;2023-02-12T11:00:45;100385.84;;;10.21;58.38
55217;BME280;41086;46.736;15.666;2023-02-12T11:05:41;100387.03;;;10.13;54.48
55217;BME280;41086;46.736;15.666;2023-02-12T11:08:32;100370.06;;;10.42;55.46
55217;BME280;41086;46.736;15.666;2023-02-12T11:11:12;100381.88;;;10.80;52.65
55217;BME280;41086;46.736;15.666;2023-02-12T11:13:43;100385.66;;;10.73;54.91
55217;BME280;41086;46.736;15.666;2023-02-12T11:16:11;100390.91;;;10.75;54.64
55217;BME280;41086;46.736;15.666;2023-02-12T11:18:38;100387.66;;;11.12;52.14
55217;BME280;41086;46.736;15.666;2023-02-12T11:21:08;100388.63;;;11.31;51.21
55217;BME280;41086;46.736;15.666;2023-02-12T11:28:37;100372.09;;;10.59;54.80
55217;BME280;41086;46.736;15.666;2023-02-12T11:33:40;100373.09;;;11.00;52.71
55217;BME280;41086;46.736;15.666;2023-02-12T11:36:19;100373.47;;;11.35;50.98
55217;BME280;41086;46.736;15.666;2023-02-12T11:38:54;100368.41;;;12.50;51.57
55217;BME280;41086;46.736;15.666;2023-02-12T11:41:40;100370.69;;;13.32;48.57
55217;BME280;41086;46.736;15.666;2023-02-12T11:44:18;100365.22;;;13.87;47.89
55217;BME280;41086;46.736;15.666;2023-02-12T11:46:48;100366.63;;;13.60;45.18
55217;BME280;41086;46.736;15.666;2023-02-12T11:49:20;100366.72;;;13.75;46.86
55217;BME280;41086;46.736;15.666;2023-02-12T11:51:48;100363.28;;;13.56;44.63
55217;BME280;41086;46.736;15.666;2023-02-12T11:54:22;100348.72;;;12.54;47.25
55217;BME280;41086;46.736;15.666;2023-02-12T11:56:50;100362.97;;;13.08;48.73
55217;BME280;41086;46.736;15.666;2023-02-12T11:59:39;100360.59;;;13.91;48.37
55217;BME280;41086;46.736;15.666;2023-02-12T12:02:22;100360.69;;;14.23;44.71
55217;BME280;41086;46.736;15.666;2023-02-12T12:04:53;100355.66;;;14.50;45.23
55217;BME280;41086;46.736;15.666;2023-02-12T12:07:26;100362.81;;;14.65;46.62
55217;BME280;41086;46.736;15.666;2023-02-12T12:10:11;100357.09;;;13.38;47.31
55217;BME280;41086;46.736;15.666;2023-02-12T12:12:44;100336.81;;;12.80;46.72
55217;BME280;41086;46.736;15.666;2023-02-12T12:24:00;100318.56;;;12.73;48.57
55217;BME280;41086;46.736;15.666;2023-02-12T12:26:30;100325.28;;;13.35;47.96
55217;BME280;41086;46.736;15.666;2023-02-12T12:29:10;100315.53;;;13.17;48.05
55217;BME280;41086;46.736;15.666;2023-02-12T12:31:46;100306.28;;;12.70;50.06
55217;BME280;41086;46.736;15.666;2023-02-12T12:34:32;100314.06;;;11.79;51.10
55217;BME280;41086;46.736;15.666;2023-02-12T12:37:21;100309.53;;;12.39;53.17
55217;BME280;41086;46.736;15.666;2023-02-12T12:43:02;100299.13;;;13.94;47.41
55217;BME280;41086;46.736;15.666;2023-02-12T13:08:32;100289.81;;;14.34;46.79
55217;BME280;41086;46.736;15.666;2023-02-12T13:13:49;100280.91;;;15.13;42.97
55217;BME280;41086;46.736;15.666;2023-02-12T13:16:24;100276.41;;;15.14;43.18
55217;BME280;41086;46.736;15.666;2023-02-12T13:18:58;100279.44;;;15.52;44.63
55217;BME280;41086;46.736;15.666;2023-02-12T13:27:07;100271.97;;;15.73;41.47
55217;BME280;41086;46.736;15.666;2023-02-12T13:29:43;100280.94;;;15.27;41.15
55217;BME280;41086;46.736;15.666;2023-02-12T13:32:12;100282.66;;;14.98;41.56
55217;BME280;41086;46.736;15.666;2023-02-12T13:34:42;100266.16;;;14.44;42.82
55217;BME280;41086;46.736;15.666;2023-02-12T13:37:42;100285.19;;;14.85;42.75
55217;BME280;41086;46.736;15.666;2023-02-12T13:40:19;100280.03;;;15.43;42.43
55217;BME280;41086;46.736;15.666;2023-02-12T13:45:47;100281.09;;;15.55;41.92
55217;BME280;41086;46.736;15.666;2023-02-12T13:54:20;100277.72;;;15.95;39.79
55217;BME280;41086;46.736;15.666;2023-02-12T13:56:57;100263.81;;;15.46;40.05
55217;BME280;41086;46.736;15.666;2023-02-12T14:02:25;100277.13;;;14.22;43.46
55217;BME280;41086;46.736;15.666;2023-02-12T14:07:19;100279.84;;;13.89;45.20
55217;BME280;41086;46.736;15.666;2023-02-12T14:33:46;100284.97;;;11.75;53.18
55217;BME280;41086;46.736;15.666;2023-02-12T14:41:35;100290.63;;;11.47;55.09
55217;BME280;41086;46.736;15.666;2023-02-12T14:46:55;100305.41;;;11.12;56.93
55217;BME280;41086;46.736;15.666;2023-02-12T14:49:29;100291.91;;;10.96;57.09
55217;BME280;41086;46.736;15.666;2023-02-12T14:54:46;100299.09;;;10.72;57.77
55217;BME280;41086;46.736;15.666;2023-02-12T14:57:33;100294.78;;;10.48;58.34
55217;BME280;41086;46.736;15.666;2023-02-12T15:02:46;100306.00;;;10.31;59.33
55217;BME280;41086;46.736;15.666;2023-02-12T15:05:22;100314.97;;;10.27;59.89
55217;BME280;41086;46.736;15.666;2023-02-12T15:08:05;100307.31;;;10.19;61.29
55217;BME280;41086;46.736;15.666;2023-02-12T15:10:40;100307.44;;;10.16;59.17
55217;BME280;41086;46.736;15.666;2023-02-12T15:13:17;100307.56;;;10.36;57.11
55217;BME280;41086;46.736;15.666;2023-02-12T15:15:52;100310.31;;;10.79;57.04
55217;BME280;41086;46.736;15.666;2023-02-12T15:18:40;100310.72;;;10.90;55.60
55217;BME280;41086;46.736;15.666;2023-02-12T15:21:17;100316.47;;;10.79;56.08
55217;BME280;41086;46.736;15.666;2023-02-12T15:24:06;100323.38;;;10.61;57.42
55217;BME280;41086;46.736;15.666;2023-02-12T15:26:43;100304.31;;;10.52;57.50
55217;BME280;41086;46.736;15.666;2023-02-12T15:31:54;100327.38;;;10.26;57.35
55217;BME280;41086;46.736;15.666;2023-02-12T15:34:24;100332.09;;;10.18;58.16
55217;BME280;41086;46.736;15.666;2023-02-12T15:36:54;100317.28;;;10.36;57.82
55217;BME280;41086;46.736;15.666;2023-02-12T15:39:22;100333.56;;;10.72;56.45
55217;BME280;41086;46.736;15.666;2023-02-12T15:41:50;100313.34;;;10.92;55.49
55217;BME280;41086;46.736;15.666;2023-02-12T15:46:58;100336.44;;;11.32;54.51
55217;BME280;41086;46.736;15.666;2023-02-12T15:49:31;100348.31;;;11.44;53.54